»·PEaware :: N27JP KSNA-KBUR

N27JP :: KSNA-KBUR

FLIGHT INFORMATION

Flight Status: Arrived
Operator: Privately registered:
United States
More flights under this callsign
Pilot: Weston J. (31543)
Aircraft: CESSNA 172 SKYHAWK
(C172)
More flights by this aircraft type
Origin: KSNA John Wayne-Orange Co
United States
Destination: KBUR Bob Hope-Burbank
United States
More flights between these airports :: More routes between these airports
Route: SLI V23 POPPR SMO125 SMO SMO311 SILEX
File this flight plan on PilotEdge
Remarks: TEC route CSTP1
Altitude:
(Current/Filed)
4,000ft
Speed:
(Current/Filed)
110kts
Departed: 05-Dec-20 01:50 PM
Arrived: 05-Dec-20 02:30 PM
Distance/Time
Traveled:
40nm/0:40
Distance/Time
To Go:
Arrived

Flight Plot

Page will automatically refresh every two minutes.


Map Options




Map Legend


Flown Route
Filed Route
Departure Airport
Arrival Airport
Navaid (VOR, NDB)
Fix

Horizontal Profiles

Position Reports

Time Latitude Longitude Heading Altitude Ground
Speed
05-Dec-20 13:26 33.672586 -117.873199 208 60ft 0kts
05-Dec-20 13:27 33.672586 -117.873199 208 60ft 0kts
05-Dec-20 13:29 33.672586 -117.873199 208 60ft 0kts
05-Dec-20 13:30 33.672586 -117.873199 208 60ft 0kts
05-Dec-20 13:31 33.672586 -117.873199 208 60ft 0kts
05-Dec-20 13:32 33.672586 -117.873199 208 60ft 0kts
05-Dec-20 13:33 33.672586 -117.873199 208 60ft 0kts
05-Dec-20 13:34 33.672586 -117.873199 208 60ft 0kts
05-Dec-20 13:35 33.672586 -117.873199 208 60ft 0kts
05-Dec-20 13:36 33.672586 -117.873199 208 60ft 0kts
05-Dec-20 13:37 33.672586 -117.873199 208 60ft 0kts
05-Dec-20 13:38 33.672586 -117.873199 208 60ft 0kts
05-Dec-20 13:39 33.672586 -117.873199 208 60ft 0kts
05-Dec-20 13:40 33.672586 -117.873199 208 60ft 0kts
05-Dec-20 13:41 33.672586 -117.873199 208 60ft 0kts
05-Dec-20 13:42 33.672586 -117.873199 208 60ft 0kts
05-Dec-20 13:43 33.672314 -117.872766 112 60ft 6kts
05-Dec-20 13:44 33.673952 -117.871416 27 60ft 16kts
05-Dec-20 13:45 33.679284 -117.868123 21 60ft 19kts
05-Dec-20 13:46 33.681216 -117.866497 109 60ft 0kts
05-Dec-20 13:46 33.681216 -117.866497 109 60ft 0kts
05-Dec-20 13:48 33.681216 -117.866497 109 60ft 0kts
05-Dec-20 13:48 33.681216 -117.866497 109 60ft 0kts
05-Dec-20 13:50 33.671606 -117.871593 205 160ft 97kts
05-Dec-20 13:51 33.648940 -117.894511 231 803ft 112kts
05-Dec-20 13:51 33.632905 -117.919523 231 1305ft 113kts
05-Dec-20 13:53 33.610264 -117.954645 231 2006ft 114kts
05-Dec-20 13:53 33.615469 -117.980885 324 2513ft 113kts
05-Dec-20 13:55 33.642487 -118.010452 315 3210ft 112kts
05-Dec-20 13:55 33.660121 -118.033482 312 3709ft 112kts
05-Dec-20 13:56 33.681588 -118.062707 312 4011ft 124kts
05-Dec-20 13:57 33.704654 -118.094481 312 4008ft 126kts
05-Dec-20 13:58 33.727593 -118.126438 312 4010ft 126kts
05-Dec-20 13:59 33.750226 -118.158598 312 4011ft 126kts
05-Dec-20 14:00 33.771838 -118.188571 312 4009ft 107kts
05-Dec-20 14:01 33.791547 -118.216265 311 4015ft 114kts
05-Dec-20 14:02 33.812399 -118.245531 312 4014ft 115kts
05-Dec-20 14:03 33.833336 -118.274923 312 4015ft 115kts
05-Dec-20 14:04 33.856508 -118.301824 321 4016ft 116kts
05-Dec-20 14:05 33.880061 -118.328364 319 4017ft 115kts
05-Dec-20 14:06 33.905165 -118.352599 324 4017ft 116kts
05-Dec-20 14:07 33.930625 -118.376622 322 4017ft 116kts
05-Dec-20 14:08 33.954704 -118.400082 322 4016ft 108kts
05-Dec-20 14:09 33.977879 -118.423070 322 4017ft 107kts
05-Dec-20 14:10 34.000999 -118.446102 323 4017ft 108kts
05-Dec-20 14:11 34.022779 -118.472418 312 4018ft 112kts
05-Dec-20 14:12 34.043801 -118.500394 312 4018ft 112kts
05-Dec-20 14:13 34.064982 -118.527993 312 4019ft 111kts
05-Dec-20 14:14 34.086202 -118.555047 313 4017ft 110kts
05-Dec-20 14:15 34.107244 -118.581864 313 4016ft 109kts
05-Dec-20 14:16 34.127960 -118.608366 313 4017ft 108kts
05-Dec-20 14:17 34.148561 -118.634845 313 4017ft 107kts
05-Dec-20 14:18 34.169055 -118.661291 312 4018ft 107kts
05-Dec-20 14:19 34.194134 -118.668736 59 3896ft 112kts
05-Dec-20 14:20 34.201295 -118.633730 92 3617ft 103kts
05-Dec-20 14:21 34.200395 -118.597345 92 3513ft 114kts
05-Dec-20 14:22 34.200393 -118.559159 88 3267ft 112kts
05-Dec-20 14:23 34.199953 -118.521442 88 3017ft 109kts
05-Dec-20 14:24 34.199478 -118.484334 89 2653ft 113kts
05-Dec-20 14:25 34.199023 -118.453720 90 2145ft 78kts
05-Dec-20 14:26 34.198740 -118.429131 89 1761ft 73kts
05-Dec-20 14:27 34.198405 -118.404802 88 1358ft 71kts
05-Dec-20 14:28 34.198003 -118.380274 88 977ft 70kts
05-Dec-20 14:29 34.197858 -118.361421 93 722ft 21kts
05-Dec-20 14:30 34.198605 -118.360249 359 723ft 0kts
05-Dec-20 14:31 34.199552 -118.360223 0 725ft 0kts
05-Dec-20 14:32 34.199552 -118.360223 0 725ft 0kts
05-Dec-20 14:33 34.199552 -118.360223 0 725ft 0kts

Navigation Log

Ident Type
Flight plan parsing failed, navigation log unavailable